Time;durP1;ratioP1;P1;durP2;ratioP2;P2;SDS_P1;SDS_P2;PMS_P1;PMS_P2;Temp;Humidity;BMP_temperature;BMP_pressure;BME280_temperature;BME280_humidity;BME280_pressure;Samples;Min_cycle;Max_cycle;Signal;HPM_P1;HPM_P2
2022/04/03 00:00:56;;;;;;;8.13;3.15;;;1.30;99.90;;;;;;4979318;28;20622;-81
2022/04/03 00:03:22;;;;;;;4.82;3.00;;;1.30;99.90;;;;;;4979366;28;20041;-80
2022/04/03 00:05:47;;;;;;;4.68;2.58;;;1.20;99.90;;;;;;4988646;28;20027;-80
2022/04/03 00:08:13;;;;;;;4.18;2.80;;;1.20;99.90;;;;;;5006628;28;20033;-81
2022/04/03 00:10:39;;;;;;;4.05;2.97;;;1.10;99.90;;;;;;4976669;28;20452;-80
2022/04/03 00:13:05;;;;;;;4.32;2.75;;;1.20;99.90;;;;;;4994942;28;20038;-81
2022/04/03 00:15:31;;;;;;;8.73;2.95;;;1.20;99.90;;;;;;4990216;28;20034;-81
2022/04/03 00:17:57;;;;;;;6.38;3.00;;;1.20;99.90;;;;;;4977413;28;20042;-81
2022/04/03 00:20:22;;;;;;;5.90;3.00;;;1.20;99.90;;;;;;4991380;28;20066;-81
2022/04/03 00:22:49;;;;;;;3.83;2.50;;;1.10;99.90;;;;;;4991598;28;20041;-80
2022/04/03 00:25:15;;;;;;;6.40;2.55;;;1.20;99.90;;;;;;4976090;28;20176;-81
2022/04/03 00:27:41;;;;;;;7.32;3.22;;;1.10;99.90;;;;;;4979280;28;20088;-81
2022/04/03 00:30:07;;;;;;;5.70;2.60;;;1.10;99.90;;;;;;4992594;28;20452;-81
2022/04/03 00:32:33;;;;;;;11.82;2.85;;;1.10;99.90;;;;;;4979338;28;20030;-81
2022/04/03 00:34:58;;;;;;;4.10;2.63;;;1.00;99.90;;;;;;4975396;28;20384;-81
2022/04/03 00:37:24;;;;;;;5.10;2.83;;;1.00;99.90;;;;;;5004471;28;20033;-80
2022/04/03 00:39:49;;;;;;;6.10;3.17;;;1.00;99.90;;;;;;4990396;28;20022;-80
2022/04/03 00:42:15;;;;;;;5.90;2.97;;;0.90;99.90;;;;;;4995157;28;20060;-81
2022/04/03 00:44:40;;;;;;;5.95;3.03;;;0.90;99.90;;;;;;4972495;28;20034;-81
2022/04/03 00:47:06;;;;;;;4.53;2.63;;;0.90;99.90;;;;;;5006104;28;20088;-80
2022/04/03 00:49:32;;;;;;;6.25;3.10;;;1.00;99.90;;;;;;4973804;28;20041;-81
2022/04/03 00:51:57;;;;;;;4.88;2.88;;;0.90;99.90;;;;;;5006738;28;20049;-81
2022/04/03 00:54:23;;;;;;;4.35;2.85;;;0.80;99.90;;;;;;5008672;28;20038;-81
2022/04/03 00:56:49;;;;;;;4.32;3.30;;;0.90;99.90;;;;;;4995788;28;20143;-80
2022/04/03 00:59:14;;;;;;;4.85;2.80;;;0.90;99.90;;;;;;4991234;28;20190;-81
2022/04/03 01:01:41;;;;;;;4.40;3.13;;;1.00;99.90;;;;;;4984682;28;20033;-81
2022/04/03 01:04:07;;;;;;;7.05;2.83;;;1.00;99.90;;;;;;5009049;28;20037;-81
2022/04/03 01:06:33;;;;;;;5.25;3.20;;;0.90;99.90;;;;;;4994222;28;20108;-80
2022/04/03 01:08:59;;;;;;;7.75;2.85;;;0.80;99.90;;;;;;4990921;28;20145;-81
2022/04/03 01:11:24;;;;;;;7.82;2.90;;;0.80;99.90;;;;;;4988510;28;20477;-81
2022/04/03 01:13:50;;;;;;;5.05;3.03;;;0.80;99.90;;;;;;4973863;28;20027;-81
2022/04/03 01:16:16;;;;;;;6.45;3.22;;;0.70;99.90;;;;;;4995466;28;20032;-81
2022/04/03 01:18:42;;;;;;;5.45;2.83;;;0.80;99.90;;;;;;4973254;28;20030;-80
2022/04/03 01:21:07;;;;;;;4.55;2.47;;;0.80;99.90;;;;;;5007421;28;20061;-81
2022/04/03 01:23:33;;;;;;;5.68;3.10;;;0.80;99.90;;;;;;4995202;28;20545;-80
2022/04/03 01:25:58;;;;;;;4.70;2.80;;;0.80;99.90;;;;;;4989978;28;20497;-81
2022/04/03 01:28:24;;;;;;;5.00;2.90;;;0.70;99.90;;;;;;5005516;28;20045;-81
2022/04/03 01:30:49;;;;;;;11.63;3.28;;;0.80;99.90;;;;;;5008073;28;20447;-80
2022/04/03 01:33:16;;;;;;;8.35;3.58;;;0.70;99.90;;;;;;4990744;28;20103;-80
2022/04/03 01:35:41;;;;;;;4.22;3.35;;;0.70;99.90;;;;;;4991926;28;20037;-80
2022/04/03 01:38:07;;;;;;;4.80;3.22;;;0.70;99.90;;;;;;4974846;28;20030;-80
2022/04/03 01:40:35;;;;;;;4.28;2.97;;;0.70;99.90;;;;;;5007297;28;20030;-80
2022/04/03 01:43:04;;;;;;;4.40;2.55;;;0.60;99.90;;;;;;5003732;28;20072;-80
2022/04/03 01:45:30;;;;;;;6.90;2.90;;;0.50;99.90;;;;;;4993939;28;20472;-81
2022/04/03 01:47:55;;;;;;;7.30;3.00;;;0.50;99.90;;;;;;5008814;28;20026;-81
2022/04/03 01:50:21;;;;;;;7.03;3.17;;;0.50;99.90;;;;;;4992278;28;20028;-80
2022/04/03 01:52:46;;;;;;;5.95;2.90;;;0.40;99.90;;;;;;4974157;28;20037;-81
2022/04/03 01:55:12;;;;;;;5.95;3.38;;;0.40;99.90;;;;;;5007383;28;20072;-81
2022/04/03 01:57:38;;;;;;;6.60;3.20;;;0.30;99.90;;;;;;4974751;28;20453;-81
2022/04/03 02:00:06;;;;;;;7.18;3.58;;;0.30;99.90;;;;;;4992205;28;20045;-81
2022/04/03 02:02:32;;;;;;;10.25;3.63;;;0.30;99.90;;;;;;4990493;28;20034;-81
2022/04/03 02:04:58;;;;;;;4.93;2.92;;;0.30;99.90;;;;;;4976046;28;20022;-81
2022/04/03 02:07:24;;;;;;;5.03;3.45;;;0.20;99.90;;;;;;4987702;28;20436;-81
2022/04/03 02:09:50;;;;;;;5.65;3.55;;;0.10;99.90;;;;;;4976182;28;20176;-80
2022/04/03 02:12:15;;;;;;;6.65;3.60;;;-0.10;99.90;;;;;;4989067;28;20034;-80
2022/04/03 02:14:41;;;;;;;6.25;3.17;;;0.10;99.90;;;;;;4974253;28;20132;-80
2022/04/03 02:17:07;;;;;;;6.00;3.47;;;0.20;99.90;;;;;;5003988;28;20084;-80
2022/04/03 02:19:32;;;;;;;8.70;3.65;;;0.20;99.90;;;;;;4977464;28;20027;-80
2022/04/03 02:21:59;;;;;;;5.82;3.88;;;0.00;99.90;;;;;;4995283;28;20078;-80
2022/04/03 02:24:24;;;;;;;6.70;3.40;;;-0.20;99.90;;;;;;4993167;28;20932;-80
2022/04/03 02:26:50;;;;;;;8.00;3.33;;;-0.30;99.90;;;;;;4994280;28;20054;-80
2022/04/03 02:29:16;;;;;;;5.85;3.47;;;-0.30;99.90;;;;;;5012947;28;20033;-80
2022/04/03 02:31:42;;;;;;;5.85;3.38;;;-0.30;99.90;;;;;;5007428;28;20088;-80
2022/04/03 02:34:08;;;;;;;5.15;3.40;;;-0.20;99.90;;;;;;4992051;28;20029;-80
2022/04/03 02:36:34;;;;;;;4.97;3.28;;;-0.20;99.90;;;;;;5005368;28;20103;-81
2022/04/03 02:38:59;;;;;;;9.15;3.35;;;-0.20;99.90;;;;;;4991489;28;20408;-80
2022/04/03 02:41:25;;;;;;;7.35;3.60;;;-0.20;99.90;;;;;;4989286;28;20112;-80
2022/04/03 02:43:51;;;;;;;7.47;3.33;;;-0.20;99.90;;;;;;4977856;28;20037;-81
2022/04/03 02:46:16;;;;;;;5.43;3.80;;;-0.20;99.90;;;;;;5004419;28;20116;-80
2022/04/03 02:48:42;;;;;;;6.82;3.80;;;-0.30;99.90;;;;;;4986714;28;20049;-80
2022/04/03 02:51:07;;;;;;;7.22;3.60;;;-0.40;99.90;;;;;;4978035;28;20044;-80
2022/04/03 02:53:33;;;;;;;5.80;3.75;;;-0.30;99.90;;;;;;4993956;28;20327;-80
2022/04/03 02:55:58;;;;;;;7.00;4.03;;;-0.30;99.90;;;;;;4994518;28;20030;-80
2022/04/03 02:58:24;;;;;;;7.03;3.47;;;-0.30;99.90;;;;;;4980950;28;20137;-81
2022/04/03 03:00:49;;;;;;;8.15;3.90;;;-0.40;99.90;;;;;;4982588;28;20021;-80
2022/04/03 03:03:15;;;;;;;9.50;4.15;;;-0.50;99.90;;;;;;5018167;28;20030;-80
2022/04/03 03:05:42;;;;;;;10.27;4.47;;;-0.50;99.90;;;;;;4992298;28;20034;-80
2022/04/03 03:08:08;;;;;;;5.75;3.45;;;-0.40;99.90;;;;;;4978281;28;20026;-81
2022/04/03 03:10:34;;;;;;;5.50;3.90;;;-0.30;99.90;;;;;;4992014;28;20042;-81
2022/04/03 03:13:00;;;;;;;7.68;3.80;;;-0.30;99.90;;;;;;4993413;28;20080;-81
2022/04/03 03:15:26;;;;;;;5.68;3.30;;;-0.30;99.90;;;;;;4992587;28;20477;-81
2022/04/03 03:17:51;;;;;;;6.50;3.42;;;-0.30;99.90;;;;;;4981136;28;20049;-80
2022/04/03 03:20:17;;;;;;;5.60;3.53;;;-0.30;99.90;;;;;;5011782;28;20041;-80
2022/04/03 03:22:44;;;;;;;3.55;3.08;;;-0.30;99.90;;;;;;4970511;28;20437;-80
2022/04/03 03:25:11;;;;;;;8.27;4.22;;;-0.40;99.90;;;;;;5014164;28;20026;-80
2022/04/03 03:27:39;;;;;;;6.13;3.25;;;-0.40;99.90;;;;;;4982007;28;20037;-80
2022/04/03 03:30:05;;;;;;;6.53;3.65;;;-0.50;99.90;;;;;;4992013;28;20397;-80
2022/04/03 03:32:30;;;;;;;4.97;3.38;;;-0.60;99.90;;;;;;5008107;28;20079;-81
2022/04/03 03:34:56;;;;;;;7.32;3.60;;;-0.60;99.90;;;;;;4998964;28;20545;-81
2022/04/03 03:37:21;;;;;;;7.03;3.90;;;-0.60;99.90;;;;;;4997093;28;20501;-80
2022/04/03 03:39:47;;;;;;;10.23;3.70;;;-0.60;99.90;;;;;;4997269;28;20025;-81
2022/04/03 03:42:13;;;;;;;6.50;3.60;;;-0.60;99.90;;;;;;4994207;28;20053;-80
2022/04/03 03:44:39;;;;;;;6.53;3.40;;;-0.70;99.90;;;;;;4979535;28;20488;-81
2022/04/03 03:47:05;;;;;;;7.13;3.40;;;-0.70;99.90;;;;;;4993877;28;20026;-81
2022/04/03 03:49:31;;;;;;;6.25;3.90;;;-0.90;99.90;;;;;;4995009;28;20034;-80
2022/04/03 03:51:56;;;;;;;6.72;2.63;;;-1.00;99.90;;;;;;4993380;28;20033;-81
2022/04/03 03:54:22;;;;;;;6.72;3.53;;;-1.00;99.90;;;;;;4976233;28;20116;-80
2022/04/03 03:56:48;;;;;;;8.23;3.50;;;-1.00;99.90;;;;;;4993480;28;20388;-80
2022/04/03 03:59:14;;;;;;;6.68;3.83;;;-0.90;99.90;;;;;;4968978;28;20054;-80
2022/04/03 04:01:40;;;;;;;5.35;3.40;;;-1.00;99.90;;;;;;4977932;28;20058;-79
2022/04/03 04:04:06;;;;;;;7.43;3.75;;;-1.00;99.90;;;;;;4981407;28;20124;-80
2022/04/03 04:06:31;;;;;;;7.57;3.72;;;-1.10;99.90;;;;;;4973842;28;20033;-80
2022/04/03 04:08:57;;;;;;;7.55;3.42;;;-1.20;99.90;;;;;;4994265;28;20044;-80
2022/04/03 04:11:22;;;;;;;6.63;2.90;;;-1.20;99.90;;;;;;4992544;28;20030;-80
2022/04/03 04:13:48;;;;;;;6.80;4.10;;;-1.20;99.90;;;;;;4995146;28;20026;-80
2022/04/03 04:16:14;;;;;;;6.95;4.18;;;-1.30;99.90;;;;;;4981679;28;20445;-80
2022/04/03 04:18:39;;;;;;;10.10;4.22;;;-1.20;99.90;;;;;;4992919;28;20034;-80
2022/04/03 04:21:05;;;;;;;7.20;4.05;;;-1.40;99.90;;;;;;4976007;28;20049;-80
2022/04/03 04:23:31;;;;;;;9.48;4.32;;;-1.50;99.90;;;;;;4992000;28;20125;-80
2022/04/03 04:25:56;;;;;;;6.57;4.22;;;-1.50;99.90;;;;;;4991131;28;20025;-80
2022/04/03 04:28:22;;;;;;;10.35;3.67;;;-1.70;99.90;;;;;;4993621;28;20029;-80
2022/04/03 04:30:47;;;;;;;7.40;3.42;;;-1.70;99.90;;;;;;4974628;28;20369;-80
2022/04/03 04:33:13;;;;;;;10.60;4.28;;;-1.60;99.90;;;;;;4996155;28;20080;-80
2022/04/03 04:35:39;;;;;;;9.40;4.43;;;-1.60;99.90;;;;;;4992551;28;20061;-80
2022/04/03 04:38:04;;;;;;;10.50;4.43;;;-1.70;99.90;;;;;;4980207;28;20486;-80
2022/04/03 04:40:30;;;;;;;11.40;4.50;;;-1.70;99.90;;;;;;4993606;28;20061;-80
2022/04/03 04:42:56;;;;;;;9.32;4.65;;;-1.70;99.90;;;;;;5008730;28;20034;-80
2022/04/03 04:45:22;;;;;;;5.78;3.92;;;-1.70;99.90;;;;;;5011706;28;20088;-80
2022/04/03 04:47:48;;;;;;;9.10;4.63;;;-1.70;99.90;;;;;;4981520;28;20038;-80
2022/04/03 04:50:18;;;;;;;8.60;4.50;;;-1.80;99.90;;;;;;4995162;28;20026;-80
2022/04/03 04:52:44;;;;;;;9.32;4.97;;;-1.70;99.90;;;;;;5012646;28;20164;-80
2022/04/03 04:55:09;;;;;;;11.60;4.47;;;-1.80;99.90;;;;;;4992878;28;20525;-80
2022/04/03 04:57:36;;;;;;;7.93;4.80;;;-1.80;99.90;;;;;;4993137;28;20113;-80
2022/04/03 05:00:05;;;;;;;7.63;4.65;;;-1.90;99.90;;;;;;4976996;28;20034;-80
2022/04/03 05:02:30;;;;;;;6.90;4.22;;;-1.90;99.90;;;;;;5003811;28;20049;-79
2022/04/03 05:04:56;;;;;;;9.85;5.40;;;-1.90;99.90;;;;;;4992296;28;20061;-80
2022/04/03 05:07:22;;;;;;;8.48;4.05;;;-2.10;99.90;;;;;;4994335;28;20030;-79
2022/04/03 05:09:47;;;;;;;8.27;5.55;;;-1.90;99.90;;;;;;4993242;28;20447;-79
2022/04/03 05:12:13;;;;;;;8.50;4.22;;;-1.90;99.90;;;;;;4991847;28;20113;-79
2022/04/03 05:14:39;;;;;;;9.38;5.60;;;-2.10;99.90;;;;;;4991287;28;20092;-80
2022/04/03 05:17:05;;;;;;;9.32;5.18;;;-2.10;99.90;;;;;;4978480;28;20441;-80
2022/04/03 05:19:32;;;;;;;9.68;5.40;;;-2.20;99.90;;;;;;4990431;28;20137;-80
2022/04/03 05:21:57;;;;;;;9.30;6.07;;;-2.20;99.90;;;;;;4978643;28;20045;-79
2022/04/03 05:24:23;;;;;;;11.73;5.63;;;-2.20;99.90;;;;;;4996319;28;20508;-79
2022/04/03 05:26:48;;;;;;;12.38;5.85;;;-2.20;99.90;;;;;;5008432;28;20026;-79
2022/04/03 05:29:14;;;;;;;11.05;5.60;;;-2.30;99.90;;;;;;4966058;28;20037;-81
2022/04/03 05:31:40;;;;;;;12.75;6.20;;;-2.20;99.90;;;;;;4988477;28;20037;-80
2022/04/03 05:34:05;;;;;;;12.75;5.72;;;-2.20;99.90;;;;;;4988906;28;20105;-81
2022/04/03 05:36:31;;;;;;;11.20;6.45;;;-2.20;99.90;;;;;;4990041;28;20084;-79
2022/04/03 05:38:57;;;;;;;11.35;6.75;;;-2.30;99.90;;;;;;5004751;28;20103;-79
2022/04/03 05:41:22;;;;;;;12.48;6.57;;;-2.20;99.90;;;;;;5004067;28;20090;-79
2022/04/03 05:43:48;;;;;;;10.52;6.45;;;-2.30;99.90;;;;;;4991501;28;20401;-79
2022/04/03 05:46:13;;;;;;;13.52;7.00;;;-2.10;99.90;;;;;;5006342;28;20026;-80
2022/04/03 05:48:39;;;;;;;12.43;6.82;;;-2.10;99.90;;;;;;4989452;28;20030;-79
2022/04/03 05:51:04;;;;;;;10.40;6.75;;;-2.20;99.90;;;;;;4978219;28;20026;-80
2022/04/03 05:53:30;;;;;;;10.25;6.03;;;-2.00;99.90;;;;;;5004258;28;20414;-79
2022/04/03 05:55:56;;;;;;;13.23;6.18;;;-1.80;99.90;;;;;;4994096;28;20022;-80
2022/04/03 05:58:21;;;;;;;11.32;6.25;;;-1.70;99.90;;;;;;4978946;28;20034;-79
2022/04/03 06:00:47;;;;;;;7.05;3.47;;;-1.60;99.90;;;;;;4291545;28;10000616;-80
2022/04/03 06:03:13;;;;;;;7.20;4.72;;;-1.40;99.90;;;;;;4987783;28;20658;-80
2022/04/03 06:05:39;;;;;;;8.52;4.78;;;-1.30;99.90;;;;;;4974053;28;20219;-80
2022/04/03 06:08:05;;;;;;;6.80;4.05;;;-1.30;99.90;;;;;;4990034;28;20382;-79
2022/04/03 06:10:30;;;;;;;8.00;3.75;;;-1.10;99.90;;;;;;4989624;28;20117;-79
2022/04/03 06:13:03;;;;;;;8.52;3.88;;;-0.90;99.90;;;;;;4973265;28;20130;-80
2022/04/03 06:15:36;;;;;;;7.97;5.50;;;-0.90;99.90;;;;;;4972814;28;20038;-80
2022/04/03 06:18:02;;;;;;;8.07;5.00;;;-0.80;99.90;;;;;;4991389;28;20060;-80
2022/04/03 06:20:28;;;;;;;12.60;6.15;;;-0.80;99.90;;;;;;4988117;28;20037;-80
2022/04/03 06:22:53;;;;;;;12.95;6.00;;;-0.80;99.90;;;;;;4990854;28;20065;-80
2022/04/03 06:25:20;;;;;;;10.40;6.25;;;-0.60;99.90;;;;;;4992419;28;20030;-80
2022/04/03 06:27:45;;;;;;;13.07;7.68;;;-0.60;99.90;;;;;;4976538;28;20030;-80
2022/04/03 06:30:12;;;;;;;10.57;5.05;;;-0.50;99.90;;;;;;4979133;28;20021;-80
2022/04/03 06:32:37;;;;;;;11.23;7.18;;;-0.40;99.90;;;;;;4976338;28;20433;-80
2022/04/03 06:35:03;;;;;;;9.80;4.90;;;-0.20;99.90;;;;;;4981621;28;20144;-80
2022/04/03 06:37:29;;;;;;;8.88;5.80;;;-0.10;99.90;;;;;;4992194;28;20046;-80
2022/04/03 06:39:54;;;;;;;10.43;7.43;;;0.00;99.90;;;;;;5005136;28;20049;-80
2022/04/03 06:42:20;;;;;;;12.82;7.30;;;0.10;99.90;;;;;;4978303;28;20029;-80
2022/04/03 06:44:45;;;;;;;10.23;5.30;;;0.10;99.90;;;;;;4997339;28;20034;-80
2022/04/03 06:47:11;;;;;;;9.80;6.78;;;0.20;99.90;;;;;;4991230;28;20042;-80
2022/04/03 06:49:40;;;;;;;8.85;5.65;;;0.00;99.90;;;;;;4995337;28;20038;-80
2022/04/03 06:52:08;;;;;;;8.70;6.30;;;0.40;99.90;;;;;;4994838;28;20022;-80
2022/04/03 06:54:34;;;;;;;10.40;5.95;;;0.70;99.90;;;;;;5006716;28;20042;-80
2022/04/03 06:57:00;;;;;;;10.43;6.25;;;0.70;99.90;;;;;;5008998;28;20506;-80
2022/04/03 06:59:26;;;;;;;7.65;5.93;;;0.90;99.90;;;;;;4978937;28;20046;-80
2022/04/03 07:01:51;;;;;;;9.35;5.63;;;0.90;99.90;;;;;;4978250;28;20030;-80
2022/04/03 07:04:19;;;;;;;9.90;6.18;;;1.10;99.90;;;;;;5006760;28;20030;-80
2022/04/03 07:06:44;;;;;;;7.68;4.95;;;1.20;99.90;;;;;;4991280;28;20328;-80
2022/04/03 07:09:11;;;;;;;9.40;4.72;;;1.30;99.90;;;;;;4998818;28;20045;-81
2022/04/03 07:11:36;;;;;;;7.25;5.25;;;1.50;99.90;;;;;;4990970;28;20037;-81
2022/04/03 07:14:02;;;;;;;11.75;5.40;;;1.70;99.90;;;;;;4996624;28;20025;-80
2022/04/03 07:16:27;;;;;;;7.68;3.65;;;1.70;99.90;;;;;;5009515;28;20034;-80
2022/04/03 07:18:53;;;;;;;9.80;5.95;;;1.80;99.90;;;;;;4995666;28;20074;-80
2022/04/03 07:21:18;;;;;;;9.75;5.35;;;1.90;99.90;;;;;;4992179;28;20033;-81
2022/04/03 07:23:44;;;;;;;6.63;4.22;;;1.90;99.90;;;;;;4997062;28;20462;-81
2022/04/03 07:26:09;;;;;;;5.57;3.70;;;2.20;99.90;;;;;;4979106;28;20057;-81
2022/04/03 07:28:36;;;;;;;7.63;4.22;;;2.10;99.90;;;;;;4991417;28;20057;-80
2022/04/03 07:31:01;;;;;;;8.68;3.95;;;2.30;99.90;;;;;;4994668;28;20026;-80
2022/04/03 07:33:27;;;;;;;6.90;3.75;;;2.50;99.90;;;;;;4978047;28;20456;-81
2022/04/03 07:35:52;;;;;;;6.10;3.40;;;2.70;99.90;;;;;;4991304;28;20524;-81
2022/04/03 07:38:18;;;;;;;6.05;3.58;;;2.70;99.90;;;;;;4996655;28;20037;-80
2022/04/03 07:40:45;;;;;;;5.22;2.90;;;2.80;99.90;;;;;;4992042;28;20049;-80
2022/04/03 07:43:12;;;;;;;6.65;3.67;;;2.90;99.90;;;;;;4991638;28;20045;-81
2022/04/03 07:45:37;;;;;;;7.70;3.92;;;3.00;99.90;;;;;;4993105;28;20045;-80
2022/04/03 07:48:03;;;;;;;11.38;3.88;;;2.80;99.90;;;;;;4999180;28;20599;-80
2022/04/03 07:50:29;;;;;;;9.50;3.45;;;2.90;99.90;;;;;;4992550;28;20022;-81
2022/04/03 07:52:55;;;;;;;6.30;2.67;;;2.90;99.90;;;;;;4992111;28;20034;-81
2022/04/03 07:55:20;;;;;;;7.30;3.05;;;2.90;99.90;;;;;;4993809;28;20315;-81
2022/04/03 07:57:46;;;;;;;7.15;2.80;;;3.20;99.90;;;;;;4996695;28;20887;-81
2022/04/03 08:00:12;;;;;;;4.88;2.58;;;3.30;99.90;;;;;;4978544;28;20389;-81
2022/04/03 08:02:38;;;;;;;8.88;3.25;;;3.40;99.90;;;;;;4976353;28;20503;-81
2022/04/03 08:05:05;;;;;;;5.43;3.08;;;3.70;99.90;;;;;;5005595;28;20046;-81
2022/04/03 08:07:43;;;;;;;7.72;3.22;;;3.50;99.90;;;;;;5007710;28;20080;-81
2022/04/03 08:10:09;;;;;;;5.63;2.08;;;3.00;99.90;;;;;;4987963;28;20033;-81
2022/04/03 08:12:37;;;;;;;5.82;2.25;;;2.80;99.90;;;;;;4991030;28;20109;-81
2022/04/03 08:15:04;;;;;;;4.50;2.08;;;3.40;99.90;;;;;;5007803;28;20033;-81
2022/04/03 08:17:30;;;;;;;4.45;2.42;;;3.70;99.90;;;;;;5007805;28;20493;-81
2022/04/03 08:19:56;;;;;;;7.72;2.80;;;3.30;99.90;;;;;;4976301;28;20033;-81
2022/04/03 08:22:21;;;;;;;8.23;2.70;;;3.60;99.90;;;;;;4979488;28;20025;-81
2022/04/03 08:24:48;;;;;;;3.85;2.65;;;3.90;99.90;;;;;;4994136;28;20038;-81
2022/04/03 08:27:14;;;;;;;4.28;2.60;;;3.90;99.90;;;;;;4997994;28;20033;-81
2022/04/03 08:29:40;;;;;;;4.93;2.80;;;4.30;99.90;;;;;;4991907;28;20038;-80
2022/04/03 08:32:05;;;;;;;3.83;2.75;;;4.20;99.90;;;;;;5011834;28;20034;-80
2022/04/03 08:34:33;;;;;;;3.38;2.38;;;4.30;99.90;;;;;;4989501;28;20026;-81
2022/04/03 08:36:59;;;;;;;4.22;2.10;;;4.40;99.90;;;;;;4993124;28;20036;-80
2022/04/03 08:39:25;;;;;;;4.82;2.33;;;4.70;99.90;;;;;;4976462;28;20034;-81
2022/04/03 08:41:51;;;;;;;5.43;2.15;;;5.10;99.90;;;;;;4974535;28;20034;-80
2022/04/03 08:44:18;;;;;;;3.42;1.80;;;5.40;99.90;;;;;;4993946;28;20038;-80
2022/04/03 08:46:46;;;;;;;4.28;1.90;;;5.40;99.90;;;;;;4977126;28;20420;-81
2022/04/03 08:49:12;;;;;;;3.00;1.80;;;5.50;99.90;;;;;;5011840;28;20036;-81
2022/04/03 08:51:38;;;;;;;2.00;1.70;;;5.00;99.90;;;;;;4975412;28;20121;-81
2022/04/03 08:54:04;;;;;;;3.25;1.73;;;5.90;99.90;;;;;;5009719;28;20038;-81
2022/04/03 08:56:30;;;;;;;3.08;1.52;;;6.00;99.90;;;;;;4992107;28;20026;-80
2022/04/03 08:58:55;;;;;;;4.95;1.85;;;6.00;99.90;;;;;;4974585;28;20018;-80
2022/04/03 09:01:21;;;;;;;2.20;1.70;;;6.10;99.90;;;;;;4993041;28;20040;-81
2022/04/03 09:03:47;;;;;;;2.83;1.92;;;6.20;99.90;;;;;;5007186;28;20042;-80
2022/04/03 09:06:17;;;;;;;3.75;2.08;;;6.40;99.90;;;;;;4991406;28;21700;-81
2022/04/03 09:08:42;;;;;;;2.78;2.10;;;6.50;99.90;;;;;;4990509;28;20049;-81
2022/04/03 09:11:08;;;;;;;2.25;1.48;;;6.70;99.90;;;;;;4994278;28;20456;-81
2022/04/03 09:13:34;;;;;;;4.10;2.03;;;6.80;99.90;;;;;;4994035;28;20436;-80
2022/04/03 09:16:00;;;;;;;3.97;2.17;;;6.90;99.90;;;;;;4989992;28;20042;-80
2022/04/03 09:19:01;;;;;;;3.88;1.63;;;6.90;99.90;;;;;;4978889;28;20033;-81
2022/04/03 09:21:27;;;;;;;3.03;1.92;;;7.20;99.90;;;;;;4932150;28;20035;-81
2022/04/03 09:23:59;;;;;;;5.57;2.33;;;7.20;99.90;;;;;;4973117;28;20049;-81
2022/04/03 09:26:25;;;;;;;2.92;1.65;;;7.30;99.90;;;;;;4987498;28;20042;-81
2022/04/03 09:28:50;;;;;;;4.43;1.85;;;7.40;99.90;;;;;;5009574;28;20033;-81
2022/04/03 09:31:25;;;;;;;3.53;2.20;;;7.40;99.90;;;;;;4993688;28;20469;-81
2022/04/03 09:34:05;;;;;;;2.73;1.87;;;7.50;99.90;;;;;;4996356;28;20495;-80
2022/04/03 09:36:31;;;;;;;4.05;2.08;;;7.50;99.90;;;;;;4990274;28;20034;-81
2022/04/03 09:39:15;;;;;;;3.10;2.20;;;7.60;99.90;;;;;;4991834;28;20040;-81
2022/04/03 09:42:02;;;;;;;4.55;1.92;;;7.70;99.90;;;;;;5011331;28;20151;-81
2022/04/03 09:44:31;;;;;;;;;;;7.70;99.90;;;;;;5010506;28;20034;-81
2022/04/03 09:47:20;;;;;;;2.70;2.00;;;7.90;99.90;;;;;;4992087;28;19913;-81
2022/04/03 09:49:51;;;;;;;4.05;1.90;;;8.00;99.90;;;;;;4988949;28;20042;-81
2022/04/03 09:52:41;;;;;;;3.42;2.20;;;8.00;99.90;;;;;;4995939;28;20045;-81
2022/04/03 09:55:17;;;;;;;3.42;2.22;;;8.00;99.90;;;;;;5003015;28;20529;-81
2022/04/03 09:57:47;;;;;;;4.35;2.47;;;8.10;99.90;;;;;;4991245;28;20029;-81
2022/04/03 10:00:14;;;;;;;2.38;1.85;;;8.00;99.90;;;;;;4991970;28;20037;-81
2022/04/03 10:02:45;;;;;;;3.75;1.65;;;8.20;99.90;;;;;;4991418;28;20042;-81
2022/04/03 10:05:11;;;;;;;11.90;2.80;;;8.20;99.90;;;;;;4998434;28;20102;-81
2022/04/03 10:07:37;;;;;;;5.35;1.73;;;9.30;99.90;;;;;;4977828;28;20429;-82
2022/04/03 10:10:03;;;;;;;2.13;1.63;;;8.40;99.90;;;;;;4986485;28;20029;-82
2022/04/03 10:12:28;;;;;;;6.38;1.85;;;8.50;99.90;;;;;;4998264;28;20511;-82
2022/04/03 10:14:56;;;;;;;2.42;1.58;;;8.60;99.90;;;;;;4989632;28;20041;-82
2022/04/03 10:17:21;;;;;;;2.40;1.55;;;8.80;99.90;;;;;;4979020;28;20053;-82
2022/04/03 10:19:47;;;;;;;2.75;1.50;;;8.30;99.90;;;;;;4997347;28;20053;-82
2022/04/03 10:22:28;;;;;;;2.28;1.30;;;8.90;99.90;;;;;;4996362;28;20056;-82
2022/04/03 10:24:58;;;;;;;2.72;1.65;;;9.00;99.90;;;;;;5012873;28;20095;-81
2022/04/03 10:27:32;;;;;;;3.80;1.40;;;9.20;99.90;;;;;;4995280;28;20026;-81
2022/04/03 10:29:58;;;;;;;3.15;1.60;;;9.10;99.90;;;;;;4995077;28;20489;-82
2022/04/03 10:32:27;;;;;;;2.05;1.30;;;9.10;99.90;;;;;;4993215;28;20116;-81
2022/04/03 10:34:57;;;;;;;1.33;1.23;;;9.50;99.90;;;;;;5001503;28;20041;-82
2022/04/03 10:37:42;;;;;;;3.95;1.98;;;9.40;99.90;;;;;;4995849;28;20746;-81
2022/04/03 10:40:08;;;;;;;1.83;0.85;;;9.40;99.90;;;;;;4994478;28;20040;-81
2022/04/03 10:42:47;;;;;;;5.50;2.83;;;9.50;99.90;;;;;;5008511;28;20643;-81
2022/04/03 10:45:13;;;;;;;5.80;1.52;;;9.60;99.90;;;;;;4979436;28;20029;-82
2022/04/03 10:47:40;;;;;;;6.55;1.98;;;9.80;99.90;;;;;;5012755;28;20813;-82
2022/04/03 10:50:06;;;;;;;3.55;1.45;;;9.50;99.90;;;;;;5012481;28;20033;-81
2022/04/03 10:52:38;;;;;;;1.13;0.95;;;9.70;99.90;;;;;;4975559;28;20452;-82
2022/04/03 10:55:16;;;;;;;5.32;1.38;;;9.60;99.90;;;;;;4995849;28;20034;-82
2022/04/03 10:57:42;;;;;;;1.27;1.02;;;8.80;99.90;;;;;;5006710;28;20056;-82
2022/04/03 11:00:14;;;;;;;2.92;1.60;;;9.60;99.90;;;;;;4999003;28;20068;-82
2022/04/03 11:02:52;;;;;;;4.47;1.58;;;9.30;99.90;;;;;;5008397;28;20045;-82
2022/04/03 11:05:21;;;;;;;2.25;0.77;;;9.80;99.90;;;;;;5008215;28;20516;-82
2022/04/03 11:07:47;;;;;;;2.38;1.60;;;10.20;99.80;;;;;;4999658;28;20046;-82
2022/04/03 11:10:12;;;;;;;3.40;1.15;;;10.10;99.90;;;;;;4974445;28;20030;-83
2022/04/03 11:12:56;;;;;;;1.52;1.17;;;10.00;99.90;;;;;;4310122;28;10000215;-83
2022/04/03 11:15:23;;;;;;;6.53;2.05;;;10.00;99.90;;;;;;4991226;28;20501;-83
2022/04/03 11:17:52;;;;;;;2.75;1.27;;;9.90;99.90;;;;;;5009714;28;20035;-83
2022/04/03 11:20:36;;;;;;;2.03;1.00;;;9.80;99.90;;;;;;4972552;28;20042;-83
2022/04/03 11:23:03;;;;;;;4.88;1.88;;;10.30;99.90;;;;;;4996120;28;20059;-83
2022/04/03 11:25:29;;;;;;;3.75;1.83;;;10.20;99.90;;;;;;4979614;28;20580;-83
2022/04/03 11:27:54;;;;;;;3.55;1.42;;;9.80;99.90;;;;;;4986217;28;20057;-83
2022/04/03 11:30:20;;;;;;;3.40;1.70;;;10.10;99.90;;;;;;4978219;28;20476;-83
2022/04/03 11:32:47;;;;;;;4.20;1.75;;;9.90;99.90;;;;;;4974152;28;20030;-83
2022/04/03 11:35:13;;;;;;;3.63;1.75;;;10.60;99.90;;;;;;4977892;28;20033;-83
2022/04/03 11:37:47;;;;;;;2.30;1.20;;;10.40;99.90;;;;;;4975669;28;20034;-83
2022/04/03 11:40:13;;;;;;;2.90;1.38;;;10.70;99.90;;;;;;4977838;28;20017;-84
2022/04/03 11:42:39;;;;;;;5.43;2.05;;;10.80;99.90;;;;;;4989664;28;20034;-84
2022/04/03 11:45:07;;;;;;;2.00;1.40;;;10.90;99.90;;;;;;4978764;28;20037;-84
2022/04/03 11:47:32;;;;;;;3.10;1.65;;;10.90;99.90;;;;;;5009126;28;20045;-83
2022/04/03 11:50:05;;;;;;;2.60;1.48;;;10.90;99.90;;;;;;4996067;28;20488;-84
2022/04/03 11:52:31;;;;;;;5.15;2.03;;;11.00;99.90;;;;;;5005484;28;20073;-84
2022/04/03 11:54:56;;;;;;;5.63;2.38;;;11.20;99.90;;;;;;4968876;28;20551;-84
2022/04/03 11:57:23;;;;;;;5.10;2.50;;;11.40;99.90;;;;;;4993000;28;20168;-84
2022/04/03 11:59:53;;;;;;;6.43;2.50;;;11.50;99.90;;;;;;4987360;28;20045;-84
2022/04/03 12:02:20;;;;;;;4.72;2.45;;;11.60;99.90;;;;;;4976887;28;20032;-84
2022/04/03 12:04:45;;;;;;;4.10;2.60;;;11.70;99.90;;;;;;4975771;28;20034;-84
2022/04/03 12:07:16;;;;;;;3.28;2.72;;;12.20;99.90;;;;;;4978133;28;20037;-84
2022/04/03 12:09:41;;;;;;;2.92;1.90;;;12.10;99.90;;;;;;5005632;28;20041;-84
2022/04/03 12:12:08;;;;;;;2.63;1.98;;;12.10;99.90;;;;;;4999212;28;20086;-84
2022/04/03 12:14:36;;;;;;;2.17;1.38;;;12.20;99.90;;;;;;5010315;28;20256;-84
2022/04/03 12:17:15;;;;;;;5.13;2.42;;;12.40;99.90;;;;;;4992567;28;20072;-84
2022/04/03 12:19:44;;;;;;;3.30;1.55;;;12.50;99.90;;;;;;4993120;28;20037;-84
2022/04/03 12:22:12;;;;;;;7.38;1.80;;;12.40;99.90;;;;;;4996004;28;20448;-85
2022/04/03 12:24:40;;;;;;;3.58;2.13;;;12.40;99.90;;;;;;4981654;28;20037;-84
2022/04/03 12:27:14;;;;;;;4.13;1.75;;;12.40;99.90;;;;;;4984433;28;20076;-84
2022/04/03 12:29:41;;;;;;;4.10;1.70;;;12.40;99.90;;;;;;5007343;28;20033;-84
2022/04/03 12:32:17;;;;;;;4.35;2.00;;;12.40;99.90;;;;;;5007054;28;20034;-84
2022/04/03 12:34:50;;;;;;;5.05;2.05;;;12.40;99.90;;;;;;5004670;28;20060;-84
2022/04/03 12:37:16;;;;;;;2.22;1.73;;;12.60;99.90;;;;;;4996968;28;20033;-84
2022/04/03 12:39:45;;;;;;;2.90;1.55;;;12.70;99.90;;;;;;4988351;28;20034;-84
2022/04/03 12:42:11;;;;;;;3.90;2.53;;;12.90;98.70;;;;;;4989381;28;20040;-84
2022/04/03 12:44:44;;;;;;;3.50;2.22;;;12.90;99.90;;;;;;5009789;28;20416;-84
2022/04/03 12:47:20;;;;;;;4.45;2.47;;;12.70;99.90;;;;;;4975763;28;20026;-84
2022/04/03 12:49:50;;;;;;;6.40;3.03;;;12.60;99.90;;;;;;5003620;28;20045;-84